sensor_id;sensor_type;location;lat;lon;timestamp;temperature;humidity
72338;DHT22;60294;64.134;-21.862;2022-07-04T00:00:56;10.80;79.90
72338;DHT22;60294;64.134;-21.862;2022-07-04T00:03:22;10.70;80.20
72338;DHT22;60294;64.134;-21.862;2022-07-04T00:05:48;10.60;79.90
72338;DHT22;60294;64.134;-21.862;2022-07-04T00:08:13;10.60;79.30
72338;DHT22;60294;64.134;-21.862;2022-07-04T00:10:39;10.60;79.50
72338;DHT22;60294;64.134;-21.862;2022-07-04T00:13:05;10.60;79.10
72338;DHT22;60294;64.134;-21.862;2022-07-04T00:15:31;10.50;79.20
72338;DHT22;60294;64.134;-21.862;2022-07-04T00:17:57;10.50;78.80
72338;DHT22;60294;64.134;-21.862;2022-07-04T00:20:23;10.50;79.00
72338;DHT22;60294;64.134;-21.862;2022-07-04T00:22:49;10.50;78.80
72338;DHT22;60294;64.134;-21.862;2022-07-04T00:25:14;10.50;78.90
72338;DHT22;60294;64.134;-21.862;2022-07-04T00:27:40;10.50;78.80
72338;DHT22;60294;64.134;-21.862;2022-07-04T00:30:07;10.50;78.10
72338;DHT22;60294;64.134;-21.862;2022-07-04T00:32:33;10.50;78.60
72338;DHT22;60294;64.134;-21.862;2022-07-04T00:34:59;10.50;79.00
72338;DHT22;60294;64.134;-21.862;2022-07-04T00:37:25;10.50;79.00
72338;DHT22;60294;64.134;-21.862;2022-07-04T00:39:51;10.50;78.70
72338;DHT22;60294;64.134;-21.862;2022-07-04T00:42:16;10.50;78.40
72338;DHT22;60294;64.134;-21.862;2022-07-04T00:44:42;10.50;78.30
72338;DHT22;60294;64.134;-21.862;2022-07-04T00:47:08;10.50;78.00
72338;DHT22;60294;64.134;-21.862;2022-07-04T00:49:35;10.50;78.30
72338;DHT22;60294;64.134;-21.862;2022-07-04T00:52:01;10.50;77.60
72338;DHT22;60294;64.134;-21.862;2022-07-04T00:54:30;10.50;76.80
72338;DHT22;60294;64.134;-21.862;2022-07-04T00:56:58;10.50;76.60
72338;DHT22;60294;64.134;-21.862;2022-07-04T00:59:24;10.40;76.10
72338;DHT22;60294;64.134;-21.862;2022-07-04T01:01:50;10.50;76.10
72338;DHT22;60294;64.134;-21.862;2022-07-04T01:04:16;10.40;75.50
72338;DHT22;60294;64.134;-21.862;2022-07-04T01:06:43;10.40;75.40
72338;DHT22;60294;64.134;-21.862;2022-07-04T01:09:09;10.40;74.80
72338;DHT22;60294;64.134;-21.862;2022-07-04T01:11:34;10.40;74.20
72338;DHT22;60294;64.134;-21.862;2022-07-04T01:14:01;10.40;74.10
72338;DHT22;60294;64.134;-21.862;2022-07-04T01:16:28;10.40;74.10
72338;DHT22;60294;64.134;-21.862;2022-07-04T01:18:54;10.40;73.40
72338;DHT22;60294;64.134;-21.862;2022-07-04T01:21:21;10.30;73.90
72338;DHT22;60294;64.134;-21.862;2022-07-04T01:23:47;10.40;73.80
72338;DHT22;60294;64.134;-21.862;2022-07-04T01:26:13;10.30;74.20
72338;DHT22;60294;64.134;-21.862;2022-07-04T01:28:40;10.30;74.40
72338;DHT22;60294;64.134;-21.862;2022-07-04T01:31:06;10.30;74.40
72338;DHT22;60294;64.134;-21.862;2022-07-04T01:33:32;10.30;74.50
72338;DHT22;60294;64.134;-21.862;2022-07-04T01:36:00;10.30;73.90
72338;DHT22;60294;64.134;-21.862;2022-07-04T01:38:25;10.30;73.70
72338;DHT22;60294;64.134;-21.862;2022-07-04T01:40:51;10.30;74.00
72338;DHT22;60294;64.134;-21.862;2022-07-04T01:43:17;10.30;74.20
72338;DHT22;60294;64.134;-21.862;2022-07-04T01:45:43;10.30;74.20
72338;DHT22;60294;64.134;-21.862;2022-07-04T01:48:11;10.30;74.40
72338;DHT22;60294;64.134;-21.862;2022-07-04T01:50:37;10.30;74.50
72338;DHT22;60294;64.134;-21.862;2022-07-04T01:53:03;10.20;74.50
72338;DHT22;60294;64.134;-21.862;2022-07-04T01:55:30;10.20;74.40
72338;DHT22;60294;64.134;-21.862;2022-07-04T01:57:56;10.20;74.30
72338;DHT22;60294;64.134;-21.862;2022-07-04T02:00:22;10.20;74.40
72338;DHT22;60294;64.134;-21.862;2022-07-04T02:03:06;10.20;74.40
72338;DHT22;60294;64.134;-21.862;2022-07-04T02:05:32;10.10;74.60
72338;DHT22;60294;64.134;-21.862;2022-07-04T02:07:59;10.10;74.80
72338;DHT22;60294;64.134;-21.862;2022-07-04T02:10:24;10.10;74.60
72338;DHT22;60294;64.134;-21.862;2022-07-04T02:12:50;10.10;74.50
72338;DHT22;60294;64.134;-21.862;2022-07-04T02:15:35;10.10;74.60
72338;DHT22;60294;64.134;-21.862;2022-07-04T02:18:06;10.10;74.70
72338;DHT22;60294;64.134;-21.862;2022-07-04T02:20:33;10.00;74.80
72338;DHT22;60294;64.134;-21.862;2022-07-04T02:22:59;10.00;75.10
72338;DHT22;60294;64.134;-21.862;2022-07-04T02:25:25;9.90;75.40
72338;DHT22;60294;64.134;-21.862;2022-07-04T02:27:52;9.90;75.60
72338;DHT22;60294;64.134;-21.862;2022-07-04T02:30:18;9.90;75.70
72338;DHT22;60294;64.134;-21.862;2022-07-04T02:32:44;9.90;75.60
72338;DHT22;60294;64.134;-21.862;2022-07-04T02:35:11;9.80;75.90
72338;DHT22;60294;64.134;-21.862;2022-07-04T02:37:37;9.90;75.60
72338;DHT22;60294;64.134;-21.862;2022-07-04T02:40:04;9.80;75.50
72338;DHT22;60294;64.134;-21.862;2022-07-04T02:42:31;9.80;75.30
72338;DHT22;60294;64.134;-21.862;2022-07-04T02:44:57;9.80;75.20
72338;DHT22;60294;64.134;-21.862;2022-07-04T02:47:23;9.80;74.80
72338;DHT22;60294;64.134;-21.862;2022-07-04T02:49:49;9.70;74.80
72338;DHT22;60294;64.134;-21.862;2022-07-04T02:52:15;9.70;74.50
72338;DHT22;60294;64.134;-21.862;2022-07-04T02:54:41;9.70;74.70
72338;DHT22;60294;64.134;-21.862;2022-07-04T02:57:07;9.60;74.60
72338;DHT22;60294;64.134;-21.862;2022-07-04T02:59:35;9.60;74.70
72338;DHT22;60294;64.134;-21.862;2022-07-04T03:02:01;9.60;74.90
72338;DHT22;60294;64.134;-21.862;2022-07-04T03:04:26;9.60;75.00
72338;DHT22;60294;64.134;-21.862;2022-07-04T03:06:52;9.60;75.10
72338;DHT22;60294;64.134;-21.862;2022-07-04T03:09:18;9.50;75.00
72338;DHT22;60294;64.134;-21.862;2022-07-04T03:11:44;9.50;75.60
72338;DHT22;60294;64.134;-21.862;2022-07-04T03:14:10;9.40;75.70
72338;DHT22;60294;64.134;-21.862;2022-07-04T03:16:36;9.40;75.90
72338;DHT22;60294;64.134;-21.862;2022-07-04T03:19:02;9.40;76.30
72338;DHT22;60294;64.134;-21.862;2022-07-04T03:21:28;9.30;77.00
72338;DHT22;60294;64.134;-21.862;2022-07-04T03:23:54;9.30;77.30
72338;DHT22;60294;64.134;-21.862;2022-07-04T03:26:30;9.30;77.40
72338;DHT22;60294;64.134;-21.862;2022-07-04T03:28:57;9.20;77.80
72338;DHT22;60294;64.134;-21.862;2022-07-04T03:31:24;9.20;78.00
72338;DHT22;60294;64.134;-21.862;2022-07-04T03:33:50;9.20;78.50
72338;DHT22;60294;64.134;-21.862;2022-07-04T03:36:16;9.20;78.50
72338;DHT22;60294;64.134;-21.862;2022-07-04T03:38:43;9.20;78.60
72338;DHT22;60294;64.134;-21.862;2022-07-04T03:41:09;9.20;78.60
72338;DHT22;60294;64.134;-21.862;2022-07-04T03:43:35;9.20;78.30
72338;DHT22;60294;64.134;-21.862;2022-07-04T03:46:01;9.20;78.40
72338;DHT22;60294;64.134;-21.862;2022-07-04T03:48:27;9.20;78.40
72338;DHT22;60294;64.134;-21.862;2022-07-04T03:50:53;9.20;78.50
72338;DHT22;60294;64.134;-21.862;2022-07-04T03:53:19;9.20;78.40
72338;DHT22;60294;64.134;-21.862;2022-07-04T03:55:45;9.10;78.40
72338;DHT22;60294;64.134;-21.862;2022-07-04T03:58:11;9.10;78.80
72338;DHT22;60294;64.134;-21.862;2022-07-04T04:00:37;9.10;78.80
72338;DHT22;60294;64.134;-21.862;2022-07-04T04:03:03;9.10;78.80
72338;DHT22;60294;64.134;-21.862;2022-07-04T04:05:49;9.10;78.70
72338;DHT22;60294;64.134;-21.862;2022-07-04T04:08:14;9.10;78.90
72338;DHT22;60294;64.134;-21.862;2022-07-04T04:10:40;9.10;79.00
72338;DHT22;60294;64.134;-21.862;2022-07-04T04:13:06;9.10;79.40
72338;DHT22;60294;64.134;-21.862;2022-07-04T04:15:32;9.10;79.30
72338;DHT22;60294;64.134;-21.862;2022-07-04T04:17:58;9.10;79.30
72338;DHT22;60294;64.134;-21.862;2022-07-04T04:20:23;9.10;79.10
72338;DHT22;60294;64.134;-21.862;2022-07-04T04:22:49;9.10;79.10
72338;DHT22;60294;64.134;-21.862;2022-07-04T04:25:17;9.10;79.10
72338;DHT22;60294;64.134;-21.862;2022-07-04T04:27:43;9.10;79.20
72338;DHT22;60294;64.134;-21.862;2022-07-04T04:30:09;9.10;79.20
72338;DHT22;60294;64.134;-21.862;2022-07-04T04:32:35;9.10;78.80
72338;DHT22;60294;64.134;-21.862;2022-07-04T04:35:00;9.10;78.60
72338;DHT22;60294;64.134;-21.862;2022-07-04T04:37:26;9.10;78.60
72338;DHT22;60294;64.134;-21.862;2022-07-04T04:39:52;9.10;78.10
72338;DHT22;60294;64.134;-21.862;2022-07-04T04:42:18;9.10;78.00
72338;DHT22;60294;64.134;-21.862;2022-07-04T04:44:44;9.10;77.70
72338;DHT22;60294;64.134;-21.862;2022-07-04T04:47:10;9.10;77.70
72338;DHT22;60294;64.134;-21.862;2022-07-04T04:49:35;9.10;77.50
72338;DHT22;60294;64.134;-21.862;2022-07-04T04:52:01;9.10;77.20
72338;DHT22;60294;64.134;-21.862;2022-07-04T04:54:27;9.20;77.50
72338;DHT22;60294;64.134;-21.862;2022-07-04T04:56:53;9.10;77.10
72338;DHT22;60294;64.134;-21.862;2022-07-04T04:59:19;9.10;76.80
72338;DHT22;60294;64.134;-21.862;2022-07-04T05:01:45;9.10;76.40
72338;DHT22;60294;64.134;-21.862;2022-07-04T05:04:11;9.20;76.50
72338;DHT22;60294;64.134;-21.862;2022-07-04T05:06:37;9.20;76.90
72338;DHT22;60294;64.134;-21.862;2022-07-04T05:09:03;9.20;76.60
72338;DHT22;60294;64.134;-21.862;2022-07-04T05:11:28;9.30;76.70
72338;DHT22;60294;64.134;-21.862;2022-07-04T05:13:54;9.20;77.10
72338;DHT22;60294;64.134;-21.862;2022-07-04T05:16:20;9.20;76.80
72338;DHT22;60294;64.134;-21.862;2022-07-04T05:18:46;9.40;76.70
72338;DHT22;60294;64.134;-21.862;2022-07-04T05:21:12;9.40;76.30
72338;DHT22;60294;64.134;-21.862;2022-07-04T05:23:37;9.50;76.50
72338;DHT22;60294;64.134;-21.862;2022-07-04T05:26:03;9.50;76.50
72338;DHT22;60294;64.134;-21.862;2022-07-04T05:28:29;9.60;76.80
72338;DHT22;60294;64.134;-21.862;2022-07-04T05:30:55;9.60;76.50
72338;DHT22;60294;64.134;-21.862;2022-07-04T05:33:21;9.50;75.40
72338;DHT22;60294;64.134;-21.862;2022-07-04T05:35:46;9.60;75.00
72338;DHT22;60294;64.134;-21.862;2022-07-04T05:38:12;9.70;74.90
72338;DHT22;60294;64.134;-21.862;2022-07-04T05:40:38;9.70;74.80
72338;DHT22;60294;64.134;-21.862;2022-07-04T05:43:04;9.70;74.20
72338;DHT22;60294;64.134;-21.862;2022-07-04T05:45:30;9.70;73.00
72338;DHT22;60294;64.134;-21.862;2022-07-04T05:47:55;9.70;72.80
72338;DHT22;60294;64.134;-21.862;2022-07-04T05:50:21;9.80;72.90
72338;DHT22;60294;64.134;-21.862;2022-07-04T05:52:47;9.80;72.00
72338;DHT22;60294;64.134;-21.862;2022-07-04T05:55:13;9.80;72.90
72338;DHT22;60294;64.134;-21.862;2022-07-04T05:57:38;9.80;72.90
72338;DHT22;60294;64.134;-21.862;2022-07-04T06:00:05;9.80;72.40
72338;DHT22;60294;64.134;-21.862;2022-07-04T06:02:31;9.70;72.60
72338;DHT22;60294;64.134;-21.862;2022-07-04T06:04:57;9.80;71.70
72338;DHT22;60294;64.134;-21.862;2022-07-04T06:07:23;9.90;71.20
72338;DHT22;60294;64.134;-21.862;2022-07-04T06:09:49;9.80;70.90
72338;DHT22;60294;64.134;-21.862;2022-07-04T06:12:16;9.80;69.80
72338;DHT22;60294;64.134;-21.862;2022-07-04T06:14:42;9.90;69.70
72338;DHT22;60294;64.134;-21.862;2022-07-04T06:17:08;9.90;70.30
72338;DHT22;60294;64.134;-21.862;2022-07-04T06:19:33;10.10;69.90
72338;DHT22;60294;64.134;-21.862;2022-07-04T06:21:59;10.00;68.10
72338;DHT22;60294;64.134;-21.862;2022-07-04T06:24:25;10.00;69.10
72338;DHT22;60294;64.134;-21.862;2022-07-04T06:26:51;10.10;68.10
72338;DHT22;60294;64.134;-21.862;2022-07-04T06:29:17;10.10;67.50
72338;DHT22;60294;64.134;-21.862;2022-07-04T06:31:43;10.10;67.50
72338;DHT22;60294;64.134;-21.862;2022-07-04T06:34:09;10.10;68.60
72338;DHT22;60294;64.134;-21.862;2022-07-04T06:36:53;10.20;67.70
72338;DHT22;60294;64.134;-21.862;2022-07-04T06:39:19;10.30;68.00
72338;DHT22;60294;64.134;-21.862;2022-07-04T06:41:44;10.20;68.10
72338;DHT22;60294;64.134;-21.862;2022-07-04T06:44:10;10.20;68.50
72338;DHT22;60294;64.134;-21.862;2022-07-04T06:46:36;10.30;68.10
72338;DHT22;60294;64.134;-21.862;2022-07-04T06:49:02;10.40;68.30
72338;DHT22;60294;64.134;-21.862;2022-07-04T06:51:28;10.30;68.10
72338;DHT22;60294;64.134;-21.862;2022-07-04T06:53:54;10.30;68.90
72338;DHT22;60294;64.134;-21.862;2022-07-04T06:56:19;10.30;68.00
72338;DHT22;60294;64.134;-21.862;2022-07-04T06:58:46;10.50;68.30
72338;DHT22;60294;64.134;-21.862;2022-07-04T07:01:12;10.40;68.70
72338;DHT22;60294;64.134;-21.862;2022-07-04T07:03:37;10.50;69.10
72338;DHT22;60294;64.134;-21.862;2022-07-04T07:06:03;10.40;69.20
72338;DHT22;60294;64.134;-21.862;2022-07-04T07:08:30;10.50;68.60
72338;DHT22;60294;64.134;-21.862;2022-07-04T07:10:56;10.40;69.00
72338;DHT22;60294;64.134;-21.862;2022-07-04T07:13:23;10.40;69.30
72338;DHT22;60294;64.134;-21.862;2022-07-04T07:15:49;10.60;69.10
72338;DHT22;60294;64.134;-21.862;2022-07-04T07:18:14;10.60;69.30
72338;DHT22;60294;64.134;-21.862;2022-07-04T07:20:41;10.60;69.30
72338;DHT22;60294;64.134;-21.862;2022-07-04T07:23:07;10.70;69.60
72338;DHT22;60294;64.134;-21.862;2022-07-04T07:25:33;10.80;69.40
72338;DHT22;60294;64.134;-21.862;2022-07-04T07:27:59;10.80;69.00
72338;DHT22;60294;64.134;-21.862;2022-07-04T07:30:25;10.80;68.20
72338;DHT22;60294;64.134;-21.862;2022-07-04T07:32:51;10.60;68.90
72338;DHT22;60294;64.134;-21.862;2022-07-04T07:35:17;10.70;69.40
72338;DHT22;60294;64.134;-21.862;2022-07-04T07:37:43;10.80;68.80
72338;DHT22;60294;64.134;-21.862;2022-07-04T07:40:09;10.80;68.60
72338;DHT22;60294;64.134;-21.862;2022-07-04T07:42:35;10.80;69.50
72338;DHT22;60294;64.134;-21.862;2022-07-04T07:45:01;10.80;68.70
72338;DHT22;60294;64.134;-21.862;2022-07-04T07:47:27;10.80;68.60
72338;DHT22;60294;64.134;-21.862;2022-07-04T07:49:53;11.00;68.80
72338;DHT22;60294;64.134;-21.862;2022-07-04T07:52:19;11.10;68.30
72338;DHT22;60294;64.134;-21.862;2022-07-04T07:54:45;10.90;67.50
72338;DHT22;60294;64.134;-21.862;2022-07-04T07:57:11;10.90;67.70
72338;DHT22;60294;64.134;-21.862;2022-07-04T07:59:36;11.00;68.20
72338;DHT22;60294;64.134;-21.862;2022-07-04T08:02:02;11.10;68.50
72338;DHT22;60294;64.134;-21.862;2022-07-04T08:04:28;11.20;68.00
72338;DHT22;60294;64.134;-21.862;2022-07-04T08:07:04;11.10;67.60
72338;DHT22;60294;64.134;-21.862;2022-07-04T08:09:30;11.10;67.50
72338;DHT22;60294;64.134;-21.862;2022-07-04T08:11:57;11.10;67.00
72338;DHT22;60294;64.134;-21.862;2022-07-04T08:14:23;11.20;67.70
72338;DHT22;60294;64.134;-21.862;2022-07-04T08:16:49;11.30;67.20
72338;DHT22;60294;64.134;-21.862;2022-07-04T08:19:14;11.30;67.30
72338;DHT22;60294;64.134;-21.862;2022-07-04T08:21:40;11.20;66.40
72338;DHT22;60294;64.134;-21.862;2022-07-04T08:24:06;11.00;66.60
72338;DHT22;60294;64.134;-21.862;2022-07-04T08:26:32;11.10;67.20
72338;DHT22;60294;64.134;-21.862;2022-07-04T08:28:58;11.30;66.40
72338;DHT22;60294;64.134;-21.862;2022-07-04T08:31:27;11.40;67.00
72338;DHT22;60294;64.134;-21.862;2022-07-04T08:33:54;11.30;66.80
72338;DHT22;60294;64.134;-21.862;2022-07-04T08:36:20;11.40;66.40
72338;DHT22;60294;64.134;-21.862;2022-07-04T08:38:46;11.30;67.30
72338;DHT22;60294;64.134;-21.862;2022-07-04T08:41:12;11.50;67.20
72338;DHT22;60294;64.134;-21.862;2022-07-04T08:43:41;11.60;67.20
72338;DHT22;60294;64.134;-21.862;2022-07-04T08:46:09;11.60;68.00
72338;DHT22;60294;64.134;-21.862;2022-07-04T08:48:38;11.60;68.00
72338;DHT22;60294;64.134;-21.862;2022-07-04T08:51:14;11.40;67.80
72338;DHT22;60294;64.134;-21.862;2022-07-04T08:53:49;11.50;67.30
72338;DHT22;60294;64.134;-21.862;2022-07-04T08:56:19;11.50;68.20
72338;DHT22;60294;64.134;-21.862;2022-07-04T08:59:04;11.50;68.30
72338;DHT22;60294;64.134;-21.862;2022-07-04T09:01:30;11.70;68.20
72338;DHT22;60294;64.134;-21.862;2022-07-04T09:03:57;11.80;68.10
72338;DHT22;60294;64.134;-21.862;2022-07-04T09:06:24;11.90;67.60
72338;DHT22;60294;64.134;-21.862;2022-07-04T09:08:50;11.80;68.30
72338;DHT22;60294;64.134;-21.862;2022-07-04T09:11:18;11.90;68.20
72338;DHT22;60294;64.134;-21.862;2022-07-04T09:13:44;11.90;68.20
72338;DHT22;60294;64.134;-21.862;2022-07-04T09:16:10;12.00;69.50
72338;DHT22;60294;64.134;-21.862;2022-07-04T09:18:36;11.90;70.00
72338;DHT22;60294;64.134;-21.862;2022-07-04T09:21:05;11.90;69.50
72338;DHT22;60294;64.134;-21.862;2022-07-04T09:23:33;11.70;70.40
72338;DHT22;60294;64.134;-21.862;2022-07-04T09:26:16;11.60;71.70
72338;DHT22;60294;64.134;-21.862;2022-07-04T09:28:43;11.80;72.00
72338;DHT22;60294;64.134;-21.862;2022-07-04T09:31:24;11.70;73.20
72338;DHT22;60294;64.134;-21.862;2022-07-04T09:33:58;11.70;72.90
72338;DHT22;60294;64.134;-21.862;2022-07-04T09:36:32;11.60;73.90
72338;DHT22;60294;64.134;-21.862;2022-07-04T09:39:14;11.90;72.80
72338;DHT22;60294;64.134;-21.862;2022-07-04T09:42:00;11.60;74.60
72338;DHT22;60294;64.134;-21.862;2022-07-04T09:44:47;12.10;72.40
72338;DHT22;60294;64.134;-21.862;2022-07-04T09:47:29;11.90;73.40
72338;DHT22;60294;64.134;-21.862;2022-07-04T09:50:12;11.90;73.20
72338;DHT22;60294;64.134;-21.862;2022-07-04T09:55:20;12.10;71.90
72338;DHT22;60294;64.134;-21.862;2022-07-04T09:57:46;12.10;72.40
72338;DHT22;60294;64.134;-21.862;2022-07-04T10:02:50;12.10;70.90
72338;DHT22;60294;64.134;-21.862;2022-07-04T10:05:34;12.20;71.90
72338;DHT22;60294;64.134;-21.862;2022-07-04T10:08:00;11.90;72.80
72338;DHT22;60294;64.134;-21.862;2022-07-04T10:10:33;12.70;69.70
72338;DHT22;60294;64.134;-21.862;2022-07-04T10:13:10;12.80;69.30
72338;DHT22;60294;64.134;-21.862;2022-07-04T10:15:38;12.60;68.80
72338;DHT22;60294;64.134;-21.862;2022-07-04T10:18:05;12.70;69.00
72338;DHT22;60294;64.134;-21.862;2022-07-04T10:20:31;12.20;69.70
72338;DHT22;60294;64.134;-21.862;2022-07-04T10:22:58;12.50;70.00
72338;DHT22;60294;64.134;-21.862;2022-07-04T10:25:25;12.80;67.50
72338;DHT22;60294;64.134;-21.862;2022-07-04T10:27:51;13.10;67.00
72338;DHT22;60294;64.134;-21.862;2022-07-04T10:30:25;12.80;67.80
72338;DHT22;60294;64.134;-21.862;2022-07-04T10:32:52;12.70;68.10
72338;DHT22;60294;64.134;-21.862;2022-07-04T10:38:13;12.60;67.40
72338;DHT22;60294;64.134;-21.862;2022-07-04T10:48:32;12.30;67.10
72338;DHT22;60294;64.134;-21.862;2022-07-04T10:51:07;12.50;67.80
72338;DHT22;60294;64.134;-21.862;2022-07-04T10:54:00;13.00;67.10
72338;DHT22;60294;64.134;-21.862;2022-07-04T10:58:52;12.80;67.00
72338;DHT22;60294;64.134;-21.862;2022-07-04T11:01:18;12.90;68.40
72338;DHT22;60294;64.134;-21.862;2022-07-04T11:03:45;12.60;66.80
72338;DHT22;60294;64.134;-21.862;2022-07-04T11:09:19;12.60;66.20
72338;DHT22;60294;64.134;-21.862;2022-07-04T11:11:55;12.90;67.20
72338;DHT22;60294;64.134;-21.862;2022-07-04T11:14:31;12.90;66.30
72338;DHT22;60294;64.134;-21.862;2022-07-04T11:16:58;12.60;66.70
72338;DHT22;60294;64.134;-21.862;2022-07-04T11:19:24;12.60;65.90
72338;DHT22;60294;64.134;-21.862;2022-07-04T11:21:50;13.10;65.90
72338;DHT22;60294;64.134;-21.862;2022-07-04T11:24:17;13.00;64.30
72338;DHT22;60294;64.134;-21.862;2022-07-04T11:26:43;13.10;63.40
72338;DHT22;60294;64.134;-21.862;2022-07-04T11:29:12;12.80;64.50
72338;DHT22;60294;64.134;-21.862;2022-07-04T11:31:40;12.60;67.00
72338;DHT22;60294;64.134;-21.862;2022-07-04T11:34:07;12.70;66.20
72338;DHT22;60294;64.134;-21.862;2022-07-04T11:36:33;12.80;66.60
72338;DHT22;60294;64.134;-21.862;2022-07-04T11:39:02;13.00;66.70
72338;DHT22;60294;64.134;-21.862;2022-07-04T11:41:34;13.50;64.20
72338;DHT22;60294;64.134;-21.862;2022-07-04T11:44:29;12.50;67.10
72338;DHT22;60294;64.134;-21.862;2022-07-04T11:47:19;12.80;65.50
72338;DHT22;60294;64.134;-21.862;2022-07-04T11:50:09;13.10;64.90
72338;DHT22;60294;64.134;-21.862;2022-07-04T11:55:05;13.50;63.30
72338;DHT22;60294;64.134;-21.862;2022-07-04T11:57:38;14.10;61.60
72338;DHT22;60294;64.134;-21.862;2022-07-04T12:02:36;14.10;61.40
72338;DHT22;60294;64.134;-21.862;2022-07-04T12:05:05;13.60;63.10
72338;DHT22;60294;64.134;-21.862;2022-07-04T12:07:33;13.20;63.60
72338;DHT22;60294;64.134;-21.862;2022-07-04T12:10:22;13.30;64.10
72338;DHT22;60294;64.134;-21.862;2022-07-04T12:12:56;12.90;65.50
72338;DHT22;60294;64.134;-21.862;2022-07-04T12:15:24;12.80;65.60
72338;DHT22;60294;64.134;-21.862;2022-07-04T12:17:52;12.70;65.50
72338;DHT22;60294;64.134;-21.862;2022-07-04T12:20:23;13.10;64.90
72338;DHT22;60294;64.134;-21.862;2022-07-04T12:22:57;13.70;63.50
72338;DHT22;60294;64.134;-21.862;2022-07-04T12:25:29;13.80;64.30
72338;DHT22;60294;64.134;-21.862;2022-07-04T12:27:59;14.30;63.20
72338;DHT22;60294;64.134;-21.862;2022-07-04T12:30:27;14.10;62.10
72338;DHT22;60294;64.134;-21.862;2022-07-04T12:33:11;13.70;62.10
72338;DHT22;60294;64.134;-21.862;2022-07-04T12:35:38;13.50;62.50
72338;DHT22;60294;64.134;-21.862;2022-07-04T12:38:09;13.10;64.10
72338;DHT22;60294;64.134;-21.862;2022-07-04T12:40:48;13.00;64.40
72338;DHT22;60294;64.134;-21.862;2022-07-04T12:43:14;13.70;62.80
72338;DHT22;60294;64.134;-21.862;2022-07-04T12:45:42;14.10;61.00
72338;DHT22;60294;64.134;-21.862;2022-07-04T12:48:16;13.80;62.30
72338;DHT22;60294;64.134;-21.862;2022-07-04T12:50:43;13.40;62.80
72338;DHT22;60294;64.134;-21.862;2022-07-04T12:53:09;13.70;62.10
72338;DHT22;60294;64.134;-21.862;2022-07-04T12:55:40;13.50;63.60
72338;DHT22;60294;64.134;-21.862;2022-07-04T12:58:07;13.90;61.30
72338;DHT22;60294;64.134;-21.862;2022-07-04T13:00:33;14.80;60.80
72338;DHT22;60294;64.134;-21.862;2022-07-04T13:02:59;14.60;59.70
72338;DHT22;60294;64.134;-21.862;2022-07-04T13:05:25;14.90;58.80
72338;DHT22;60294;64.134;-21.862;2022-07-04T13:07:51;14.10;61.00
72338;DHT22;60294;64.134;-21.862;2022-07-04T13:10:17;13.60;62.30
72338;DHT22;60294;64.134;-21.862;2022-07-04T13:12:43;14.00;60.00
72338;DHT22;60294;64.134;-21.862;2022-07-04T13:15:09;13.20;60.90
72338;DHT22;60294;64.134;-21.862;2022-07-04T13:17:37;13.00;62.40
72338;DHT22;60294;64.134;-21.862;2022-07-04T13:20:03;12.90;63.00
72338;DHT22;60294;64.134;-21.862;2022-07-04T13:22:30;13.60;61.10
72338;DHT22;60294;64.134;-21.862;2022-07-04T13:24:55;13.50;62.10
72338;DHT22;60294;64.134;-21.862;2022-07-04T13:27:21;13.70;61.60
72338;DHT22;60294;64.134;-21.862;2022-07-04T13:29:47;14.20;58.40
72338;DHT22;60294;64.134;-21.862;2022-07-04T13:32:13;14.40;59.80
72338;DHT22;60294;64.134;-21.862;2022-07-04T13:34:39;14.10;59.90
72338;DHT22;60294;64.134;-21.862;2022-07-04T13:37:05;14.60;58.20
72338;DHT22;60294;64.134;-21.862;2022-07-04T13:39:32;14.30;58.70
72338;DHT22;60294;64.134;-21.862;2022-07-04T13:41:58;14.80;58.10
72338;DHT22;60294;64.134;-21.862;2022-07-04T13:44:25;14.00;59.40
72338;DHT22;60294;64.134;-21.862;2022-07-04T13:46:51;15.00;56.70
72338;DHT22;60294;64.134;-21.862;2022-07-04T13:49:17;15.70;54.30
72338;DHT22;60294;64.134;-21.862;2022-07-04T13:51:43;16.30;52.00
72338;DHT22;60294;64.134;-21.862;2022-07-04T13:54:09;15.50;55.40
72338;DHT22;60294;64.134;-21.862;2022-07-04T13:56:35;17.00;51.90
72338;DHT22;60294;64.134;-21.862;2022-07-04T13:59:01;16.10;53.60
72338;DHT22;60294;64.134;-21.862;2022-07-04T14:01:27;16.60;51.80
72338;DHT22;60294;64.134;-21.862;2022-07-04T14:03:53;17.20;51.00
72338;DHT22;60294;64.134;-21.862;2022-07-04T14:06:19;17.10;50.00
72338;DHT22;60294;64.134;-21.862;2022-07-04T14:08:45;16.90;50.90
72338;DHT22;60294;64.134;-21.862;2022-07-04T14:11:11;17.00;50.50
72338;DHT22;60294;64.134;-21.862;2022-07-04T14:13:38;16.70;51.20
72338;DHT22;60294;64.134;-21.862;2022-07-04T14:16:05;16.40;50.50
72338;DHT22;60294;64.134;-21.862;2022-07-04T14:18:32;17.00;49.90
72338;DHT22;60294;64.134;-21.862;2022-07-04T14:20:58;16.80;49.70
72338;DHT22;60294;64.134;-21.862;2022-07-04T14:23:23;17.10;49.30
72338;DHT22;60294;64.134;-21.862;2022-07-04T14:26:09;17.80;48.60
72338;DHT22;60294;64.134;-21.862;2022-07-04T14:28:37;17.90;47.70
72338;DHT22;60294;64.134;-21.862;2022-07-04T14:31:03;18.70;46.50
72338;DHT22;60294;64.134;-21.862;2022-07-04T14:33:29;18.10;46.10
72338;DHT22;60294;64.134;-21.862;2022-07-04T14:35:55;18.90;46.10
72338;DHT22;60294;64.134;-21.862;2022-07-04T14:38:21;18.50;46.10
72338;DHT22;60294;64.134;-21.862;2022-07-04T14:40:47;19.00;44.80
72338;DHT22;60294;64.134;-21.862;2022-07-04T14:43:15;17.00;49.60
72338;DHT22;60294;64.134;-21.862;2022-07-04T14:45:45;17.80;47.40
72338;DHT22;60294;64.134;-21.862;2022-07-04T14:48:15;18.50;46.10
72338;DHT22;60294;64.134;-21.862;2022-07-04T14:50:42;17.70;47.50
72338;DHT22;60294;64.134;-21.862;2022-07-04T14:53:08;18.20;45.60
72338;DHT22;60294;64.134;-21.862;2022-07-04T14:55:34;18.70;45.90
72338;DHT22;60294;64.134;-21.862;2022-07-04T14:58:00;18.90;45.20
72338;DHT22;60294;64.134;-21.862;2022-07-04T15:00:26;19.40;43.60
72338;DHT22;60294;64.134;-21.862;2022-07-04T15:02:52;18.90;45.40
72338;DHT22;60294;64.134;-21.862;2022-07-04T15:05:18;18.80;44.60
72338;DHT22;60294;64.134;-21.862;2022-07-04T15:07:44;18.90;45.40
72338;DHT22;60294;64.134;-21.862;2022-07-04T15:10:10;18.30;46.30
72338;DHT22;60294;64.134;-21.862;2022-07-04T15:12:37;18.50;44.90
72338;DHT22;60294;64.134;-21.862;2022-07-04T15:15:04;18.60;46.00
72338;DHT22;60294;64.134;-21.862;2022-07-04T15:17:30;20.10;42.40
72338;DHT22;60294;64.134;-21.862;2022-07-04T15:19:55;20.40;41.60
72338;DHT22;60294;64.134;-21.862;2022-07-04T15:22:40;20.40;39.70
72338;DHT22;60294;64.134;-21.862;2022-07-04T15:25:24;20.30;42.40
72338;DHT22;60294;64.134;-21.862;2022-07-04T15:27:50;20.60;40.70
72338;DHT22;60294;64.134;-21.862;2022-07-04T15:30:17;19.60;43.30
72338;DHT22;60294;64.134;-21.862;2022-07-04T15:32:43;19.90;42.00
72338;DHT22;60294;64.134;-21.862;2022-07-04T15:35:09;19.80;42.70